« Back
NWS Peachtree City, Ga » Text Product » ATL Terminal Aerodrome Forecast


Printer-friendly Version
Current Version              Previous Versions:   1  2  3  4  5  6  7  8  9  

Terminal Aerodrome Forecast

154
FTUS42 KFFC 292222 AAB
TAFATL
TAF AMD
KATL 292222Z 2922/3024 11010KT P6SM VCSH SCT030 SCT060 BKN140
     FM300100 12005KT P6SM VCSH SCT025 OVC050
     FM300900 09007KT P6SM -SHRA SCT006 OVC025
      TEMPO 3010/3014 5SM -RA BR BKN008
     FM301400 07009KT P6SM -RA OVC015
     FM301600 08008KT P6SM BKN035 BKN120=



USA.gov is the U.S. government's official web portal to all federal, state and local government web resources and services.